Time;durP1;ratioP1;P1;durP2;ratioP2;P2;SDS_P1;SDS_P2;PMS_P1;PMS_P2;Temp;Humidity;BMP_temperature;BMP_pressure;BME280_temperature;BME280_humidity;BME280_pressure;Samples;Min_cycle;Max_cycle;Signal;HPM_P1;HPM_P2
2023/11/26 00:00:31;;;;;;;12.55;8.80;;;;;;;;;;5073106;28;20063;-58
2023/11/26 00:02:57;;;;;;;11.63;9.48;;;;;;;;;;5072703;28;20508;-58
2023/11/26 00:05:26;;;;;;;12.07;8.65;;;;;;;;;;5072541;28;20504;-58
2023/11/26 00:07:52;;;;;;;9.77;8.68;;;;;;;;;;5073248;28;20056;-58
2023/11/26 00:10:19;;;;;;;9.63;8.52;;;;;;;;;;5072488;28;20045;-58
2023/11/26 00:12:46;;;;;;;12.77;9.10;;;;;;;;;;5073040;28;20056;-58
2023/11/26 00:15:13;;;;;;;12.30;8.80;;;;;;;;;;5072592;28;20060;-58
2023/11/26 00:17:40;;;;;;;13.52;10.13;;;;;;;;;;5072965;28;20049;-58
2023/11/26 00:20:07;;;;;;;12.82;9.73;;;;;;;;;;5072856;28;20497;-58
2023/11/26 00:22:36;;;;;;;12.73;10.18;;;;;;;;;;5073034;28;20057;-58
2023/11/26 00:25:03;;;;;;;13.60;10.05;;;;;;;;;;5072632;28;20075;-58
2023/11/26 00:27:30;;;;;;;10.57;8.85;;;;;;;;;;5073159;28;20052;-58
2023/11/26 00:29:57;;;;;;;12.18;9.10;;;;;;;;;;5072402;28;20045;-59
2023/11/26 00:32:24;;;;;;;11.40;8.55;;;;;;;;;;5072846;28;20056;-59
2023/11/26 00:34:51;;;;;;;10.30;8.63;;;;;;;;;;5072272;28;20119;-59
2023/11/26 00:37:18;;;;;;;10.07;9.07;;;;;;;;;;5072508;28;20061;-59
2023/11/26 00:39:46;;;;;;;12.20;9.13;;;;;;;;;;5072601;28;20048;-59
2023/11/26 00:42:13;;;;;;;12.48;9.30;;;;;;;;;;5070941;28;20060;-59
2023/11/26 00:44:40;;;;;;;11.48;9.75;;;;;;;;;;5072495;28;20056;-59
2023/11/26 00:47:07;;;;;;;15.38;10.20;;;;;;;;;;5072548;28;20052;-58
2023/11/26 00:49:34;;;;;;;13.02;11.18;;;;;;;;;;5072723;28;20045;-59
2023/11/26 00:52:01;;;;;;;15.20;11.93;;;;;;;;;;5072070;28;20432;-59
2023/11/26 00:54:28;;;;;;;17.92;13.68;;;;;;;;;;5071691;28;20049;-59
2023/11/26 00:56:56;;;;;;;19.55;13.80;;;;;;;;;;5072712;28;20052;-59
2023/11/26 00:59:23;;;;;;;17.52;13.05;;;;;;;;;;5072160;28;20504;-59
2023/11/26 01:01:50;;;;;;;18.05;13.05;;;;;;;;;;5072509;28;20053;-59
2023/11/26 01:04:17;;;;;;;19.80;13.10;;;;;;;;;;5071136;28;20052;-59
2023/11/26 01:06:44;;;;;;;14.70;12.73;;;;;;;;;;5069053;28;20052;-59
2023/11/26 01:09:12;;;;;;;18.30;13.65;;;;;;;;;;5072248;28;20485;-59
2023/11/26 01:11:39;;;;;;;17.08;13.65;;;;;;;;;;5072256;28;20430;-59
2023/11/26 01:14:07;;;;;;;22.00;14.93;;;;;;;;;;5071672;28;20049;-59
2023/11/26 01:16:34;;;;;;;17.20;14.65;;;;;;;;;;5071199;28;20476;-60
2023/11/26 01:19:01;;;;;;;21.50;15.32;;;;;;;;;;5071876;28;20049;-59
2023/11/26 01:21:28;;;;;;;19.10;14.52;;;;;;;;;;5072619;28;20489;-59
2023/11/26 01:23:55;;;;;;;22.92;17.35;;;;;;;;;;5072664;28;20063;-59
2023/11/26 01:26:22;;;;;;;20.15;15.38;;;;;;;;;;5072119;28;20056;-59
2023/11/26 01:28:51;;;;;;;24.75;16.35;;;;;;;;;;5071831;28;20520;-59
2023/11/26 01:31:20;;;;;;;18.92;14.68;;;;;;;;;;5071862;28;20413;-59
2023/11/26 01:33:47;;;;;;;21.73;16.15;;;;;;;;;;5072118;28;20055;-59
2023/11/26 01:36:14;;;;;;;16.83;13.70;;;;;;;;;;5072104;28;20059;-59
2023/11/26 01:38:40;;;;;;;16.80;13.07;;;;;;;;;;5071886;28;20056;-59
2023/11/26 01:41:08;;;;;;;17.08;14.32;;;;;;;;;;5071868;28;20060;-59
2023/11/26 01:43:35;;;;;;;19.38;15.05;;;;;;;;;;5072057;28;20063;-59
2023/11/26 01:46:04;;;;;;;19.30;15.07;;;;;;;;;;5072303;28;20052;-59
2023/11/26 01:48:32;;;;;;;21.70;16.10;;;;;;;;;;5072249;28;20057;-59
2023/11/26 01:50:59;;;;;;;23.48;16.65;;;;;;;;;;5071813;28;20089;-59
2023/11/26 01:53:26;;;;;;;29.00;19.60;;;;;;;;;;5072006;28;20386;-59
2023/11/26 01:55:53;;;;;;;31.75;20.92;;;;;;;;;;5072056;28;20060;-59
2023/11/26 01:58:20;;;;;;;26.83;19.55;;;;;;;;;;5071711;28;20059;-59
2023/11/26 02:00:47;;;;;;;29.70;21.08;;;;;;;;;;5071867;28;20045;-59
2023/11/26 02:03:14;;;;;;;28.10;20.27;;;;;;;;;;5072264;28;20056;-59
2023/11/26 02:05:42;;;;;;;26.20;18.98;;;;;;;;;;5071724;28;20389;-59
2023/11/26 02:08:09;;;;;;;25.17;19.70;;;;;;;;;;5072145;28;20056;-59
2023/11/26 02:10:36;;;;;;;26.33;19.17;;;;;;;;;;5071375;28;20045;-59
2023/11/26 02:13:04;;;;;;;26.88;19.00;;;;;;;;;;5071549;28;20416;-58
2023/11/26 02:15:31;;;;;;;27.65;18.48;;;;;;;;;;5071987;28;20709;-60
2023/11/26 02:17:58;;;;;;;29.42;20.65;;;;;;;;;;5071421;28;20052;-59
2023/11/26 02:20:25;;;;;;;25.48;19.65;;;;;;;;;;5071634;28;20489;-59
2023/11/26 02:22:54;;;;;;;27.35;19.27;;;;;;;;;;5071720;28;20055;-59
2023/11/26 02:25:23;;;;;;;26.50;20.77;;;;;;;;;;5071471;28;20052;-59
2023/11/26 02:27:50;;;;;;;29.05;21.70;;;;;;;;;;5074292;28;20048;-59
2023/11/26 02:30:20;;;;;;;27.48;20.52;;;;;;;;;;5075341;28;20060;-59
2023/11/26 02:32:46;;;;;;;;;;;;;;;;;;5075409;28;20056;-59
2023/11/26 02:35:13;;;;;;;27.85;21.40;;;;;;;;;;5074804;28;19920;-59
2023/11/26 02:37:40;;;;;;;29.67;21.95;;;;;;;;;;5075206;28;20485;-59
2023/11/26 02:40:08;;;;;;;29.85;21.92;;;;;;;;;;5075125;28;20377;-59
2023/11/26 02:42:36;;;;;;;29.50;21.02;;;;;;;;;;5074339;28;20504;-59
2023/11/26 02:45:05;;;;;;;27.40;19.98;;;;;;;;;;5074478;28;20052;-59
2023/11/26 02:47:31;;;;;;;32.10;21.77;;;;;;;;;;5075079;28;20378;-59
2023/11/26 02:49:58;;;;;;;29.15;21.80;;;;;;;;;;5074761;28;20048;-59
2023/11/26 02:52:25;;;;;;;29.73;21.38;;;;;;;;;;5074364;28;20389;-59
2023/11/26 02:54:52;;;;;;;27.33;20.25;;;;;;;;;;5074425;28;20417;-59
2023/11/26 02:57:19;;;;;;;27.10;20.45;;;;;;;;;;5074817;28;20052;-59
2023/11/26 02:59:47;;;;;;;29.83;21.73;;;;;;;;;;5074313;28;20049;-59
2023/11/26 03:02:15;;;;;;;26.10;20.52;;;;;;;;;;5074949;28;20068;-59
2023/11/26 03:04:47;;;;;;;28.77;21.42;;;;;;;;;;5074577;28;20064;-59
2023/11/26 03:07:16;;;;;;;25.23;18.63;;;;;;;;;;5074815;28;20056;-59
2023/11/26 03:13:06;;;;;;;;;;;;;;;;;;5074949;28;20052;-59
2023/11/26 03:13:06;;;;;;;29.45;20.10;;;;;;;;;;5074532;28;19927;-59
2023/11/26 03:15:34;;;;;;;25.27;18.60;;;;;;;;;;5074545;28;20052;-60
2023/11/26 03:18:03;;;;;;;25.95;19.98;;;;;;;;;;5074344;28;20052;-59
2023/11/26 03:20:31;;;;;;;26.90;20.52;;;;;;;;;;5074296;28;20406;-59
2023/11/26 03:22:57;;;;;;;22.05;17.33;;;;;;;;;;5074414;28;20048;-59
2023/11/26 03:25:24;;;;;;;25.92;18.38;;;;;;;;;;5073993;28;20413;-59
2023/11/26 03:27:52;;;;;;;20.42;15.35;;;;;;;;;;5074214;28;20049;-59
2023/11/26 03:30:20;;;;;;;24.92;15.07;;;;;;;;;;5073609;28;20071;-59
2023/11/26 03:32:48;;;;;;;18.83;14.88;;;;;;;;;;5073811;28;20052;-59
2023/11/26 03:35:17;;;;;;;21.45;15.73;;;;;;;;;;5074082;28;20052;-59
2023/11/26 03:37:44;;;;;;;21.40;16.02;;;;;;;;;;5073166;28;20060;-59
2023/11/26 03:40:13;;;;;;;21.75;14.75;;;;;;;;;;5073460;28;20052;-60
2023/11/26 03:42:40;;;;;;;21.58;15.25;;;;;;;;;;5073251;28;20056;-59
2023/11/26 03:45:07;;;;;;;20.30;14.70;;;;;;;;;;5073481;28;20064;-59
2023/11/26 03:47:35;;;;;;;17.65;13.85;;;;;;;;;;5074321;28;20059;-59
2023/11/26 03:50:08;;;;;;;23.60;15.95;;;;;;;;;;5073714;28;20470;-59
2023/11/26 03:52:35;;;;;;;17.55;13.25;;;;;;;;;;5073877;28;20052;-59
2023/11/26 03:55:02;;;;;;;17.77;14.35;;;;;;;;;;5073672;28;20068;-59
2023/11/26 03:57:29;;;;;;;17.50;13.98;;;;;;;;;;5073992;28;20374;-59
2023/11/26 03:59:57;;;;;;;17.75;15.38;;;;;;;;;;5073661;28;20056;-59
2023/11/26 04:02:24;;;;;;;21.98;15.70;;;;;;;;;;5073684;28;20052;-59
2023/11/26 04:04:51;;;;;;;21.98;14.05;;;;;;;;;;5073198;28;20055;-59
2023/11/26 04:07:19;;;;;;;19.75;14.32;;;;;;;;;;5073544;28;20473;-59
2023/11/26 04:09:46;;;;;;;20.15;14.00;;;;;;;;;;5073163;28;20064;-59
2023/11/26 04:12:13;;;;;;;23.58;16.70;;;;;;;;;;5073126;28;20048;-59
2023/11/26 04:14:52;;;;;;;22.85;14.50;;;;;;;;;;5072906;28;20059;-59
2023/11/26 04:17:19;;;;;;;24.35;15.73;;;;;;;;;;5073396;28;20048;-59
2023/11/26 04:19:46;;;;;;;24.40;16.35;;;;;;;;;;5073338;28;20410;-60
2023/11/26 04:22:12;;;;;;;26.17;17.77;;;;;;;;;;5073332;28;20052;-59
2023/11/26 04:24:42;;;;;;;24.05;17.20;;;;;;;;;;5071558;28;20063;-58
2023/11/26 04:27:09;;;;;;;25.58;17.25;;;;;;;;;;5073194;28;20048;-59
2023/11/26 04:29:36;;;;;;;28.30;17.67;;;;;;;;;;5071512;28;20052;-59
2023/11/26 04:32:03;;;;;;;26.50;18.25;;;;;;;;;;5073008;28;20045;-59
2023/11/26 04:34:30;;;;;;;26.15;18.42;;;;;;;;;;5072568;28;20060;-59
2023/11/26 04:36:57;;;;;;;27.05;17.52;;;;;;;;;;5072946;28;20052;-59
2023/11/26 04:39:24;;;;;;;26.40;18.23;;;;;;;;;;5072453;28;20064;-59
2023/11/26 04:41:53;;;;;;;27.85;18.27;;;;;;;;;;5072344;28;20496;-59
2023/11/26 04:44:21;;;;;;;28.25;17.33;;;;;;;;;;5078150;28;20048;-58
2023/11/26 04:46:49;;;;;;;29.58;19.00;;;;;;;;;;5093208;28;20048;-59
2023/11/26 04:49:17;;;;;;;32.63;20.02;;;;;;;;;;5092733;28;20400;-59
2023/11/26 04:51:45;;;;;;;30.35;18.33;;;;;;;;;;5092412;28;20504;-59
2023/11/26 04:54:12;;;;;;;31.17;19.55;;;;;;;;;;5092623;28;20048;-59
2023/11/26 04:56:39;;;;;;;32.60;19.70;;;;;;;;;;5093183;28;20056;-59
2023/11/26 04:59:08;;;;;;;28.15;18.58;;;;;;;;;;5093051;28;20322;-59
2023/11/26 05:01:35;;;;;;;29.05;17.92;;;;;;;;;;5092998;28;20044;-59
2023/11/26 05:04:02;;;;;;;32.30;18.13;;;;;;;;;;5092691;28;20059;-59
2023/11/26 05:06:29;;;;;;;29.30;18.67;;;;;;;;;;5092725;28;20056;-59
2023/11/26 05:08:56;;;;;;;30.85;18.55;;;;;;;;;;5092673;28;20070;-59
2023/11/26 05:11:23;;;;;;;29.70;17.98;;;;;;;;;;5092536;28;20048;-59
2023/11/26 05:13:50;;;;;;;31.85;18.40;;;;;;;;;;5092880;28;20154;-59
2023/11/26 05:16:19;;;;;;;32.28;18.90;;;;;;;;;;5092786;28;20056;-59
2023/11/26 05:18:46;;;;;;;35.45;19.92;;;;;;;;;;5092168;28;20416;-59
2023/11/26 05:21:13;;;;;;;33.13;18.98;;;;;;;;;;5092410;28;20044;-59
2023/11/26 05:23:41;;;;;;;33.03;18.55;;;;;;;;;;5092749;28;20049;-59
2023/11/26 05:26:07;;;;;;;32.47;19.17;;;;;;;;;;5092285;28;20075;-59
2023/11/26 05:28:34;;;;;;;30.38;18.63;;;;;;;;;;5092769;28;20052;-59
2023/11/26 05:31:01;;;;;;;31.55;18.45;;;;;;;;;;5092190;28;20444;-59
2023/11/26 05:33:32;;;;;;;29.58;19.25;;;;;;;;;;5092681;28;20476;-59
2023/11/26 05:35:59;;;;;;;31.48;19.27;;;;;;;;;;5092475;28;20396;-59
2023/11/26 05:38:27;;;;;;;31.17;17.30;;;;;;;;;;5092471;28;20052;-59
2023/11/26 05:40:54;;;;;;;26.48;16.35;;;;;;;;;;5090600;28;20059;-59
2023/11/26 05:43:21;;;;;;;29.38;17.52;;;;;;;;;;5092021;28;20055;-59
2023/11/26 05:45:47;;;;;;;26.42;16.52;;;;;;;;;;5073997;28;20504;-59
2023/11/26 05:48:15;;;;;;;28.33;16.08;;;;;;;;;;5070767;28;20048;-59
2023/11/26 05:50:43;;;;;;;28.75;16.67;;;;;;;;;;5071923;28;20500;-59
2023/11/26 05:53:11;;;;;;;29.83;16.02;;;;;;;;;;5072111;28;20048;-59
2023/11/26 05:55:38;;;;;;;25.55;16.35;;;;;;;;;;5071957;28;20048;-59
2023/11/26 05:58:06;;;;;;;27.65;16.70;;;;;;;;;;5072120;28;20048;-59
2023/11/26 06:00:33;;;;;;;23.30;15.43;;;;;;;;;;5071638;28;20055;-60
2023/11/26 06:02:59;;;;;;;27.00;16.48;;;;;;;;;;5075168;28;20052;-59
2023/11/26 06:05:26;;;;;;;31.05;16.27;;;;;;;;;;5075454;28;20056;-59
2023/11/26 06:07:54;;;;;;;23.35;15.27;;;;;;;;;;5075297;28;20064;-59
2023/11/26 06:10:21;;;;;;;25.80;15.60;;;;;;;;;;5075301;28;20112;-60
2023/11/26 06:12:48;;;;;;;25.88;16.58;;;;;;;;;;5075052;28;20048;-59
2023/11/26 06:15:15;;;;;;;28.10;15.30;;;;;;;;;;5075454;28;20052;-59
2023/11/26 06:17:42;;;;;;;27.73;15.48;;;;;;;;;;5075436;28;20059;-59
2023/11/26 06:20:09;;;;;;;29.90;15.20;;;;;;;;;;5075125;28;20053;-59
2023/11/26 06:22:36;;;;;;;26.92;15.00;;;;;;;;;;5075302;28;20052;-59
2023/11/26 06:25:06;;;;;;;22.95;14.45;;;;;;;;;;5075568;28;20059;-59
2023/11/26 06:27:33;;;;;;;26.70;15.40;;;;;;;;;;5075337;28;20170;-59
2023/11/26 06:30:00;;;;;;;23.55;13.43;;;;;;;;;;5074803;28;20052;-59
2023/11/26 06:32:26;;;;;;;23.48;13.60;;;;;;;;;;5075296;28;20053;-59
2023/11/26 06:34:53;;;;;;;22.85;13.30;;;;;;;;;;5075135;28;20053;-59
2023/11/26 06:37:20;;;;;;;26.08;14.93;;;;;;;;;;5075348;28;20056;-59
2023/11/26 06:39:47;;;;;;;23.00;13.32;;;;;;;;;;5075387;28;20063;-59
2023/11/26 06:42:17;;;;;;;23.55;13.18;;;;;;;;;;5074670;28;20057;-58
2023/11/26 06:44:44;;;;;;;20.48;12.13;;;;;;;;;;5074706;28;20052;-59
2023/11/26 06:47:11;;;;;;;24.23;13.80;;;;;;;;;;5075060;28;20119;-59
2023/11/26 06:49:38;;;;;;;21.40;13.05;;;;;;;;;;5075235;28;20060;-59
2023/11/26 06:52:06;;;;;;;25.67;13.57;;;;;;;;;;5075157;28;20044;-59
2023/11/26 06:54:33;;;;;;;18.25;12.10;;;;;;;;;;5074956;28;20409;-59
2023/11/26 06:56:59;;;;;;;19.17;11.95;;;;;;;;;;5074957;28;20060;-59
2023/11/26 06:59:29;;;;;;;19.92;11.52;;;;;;;;;;5075072;28;20059;-59
2023/11/26 07:01:56;;;;;;;21.95;12.38;;;;;;;;;;5074751;28;20044;-59
2023/11/26 07:04:23;;;;;;;23.35;13.18;;;;;;;;;;5074388;28;20048;-59
2023/11/26 07:06:50;;;;;;;19.80;11.82;;;;;;;;;;5075096;28;20049;-59
2023/11/26 07:09:17;;;;;;;18.58;12.15;;;;;;;;;;5074612;28;20426;-59
2023/11/26 07:11:45;;;;;;;22.15;13.05;;;;;;;;;;5074390;28;20048;-59
2023/11/26 07:14:12;;;;;;;19.35;11.98;;;;;;;;;;5074109;28;20052;-59
2023/11/26 07:16:40;;;;;;;19.73;10.98;;;;;;;;;;5074541;28;20055;-59
2023/11/26 07:19:07;;;;;;;18.88;10.27;;;;;;;;;;5073644;28;20060;-59
2023/11/26 07:21:39;;;;;;;19.08;11.82;;;;;;;;;;5073607;28;20500;-59
2023/11/26 07:24:06;;;;;;;17.55;11.02;;;;;;;;;;5074134;28;20049;-60
2023/11/26 07:26:33;;;;;;;17.42;10.98;;;;;;;;;;5074087;28;20135;-59
2023/11/26 07:29:00;;;;;;;20.42;11.48;;;;;;;;;;5074231;28;20136;-59
2023/11/26 07:31:27;;;;;;;17.73;9.77;;;;;;;;;;5074156;28;20075;-59
2023/11/26 07:33:56;;;;;;;18.05;10.65;;;;;;;;;;5074056;28;20059;-59
2023/11/26 07:36:23;;;;;;;15.55;10.68;;;;;;;;;;5074244;28;20059;-59
2023/11/26 07:38:51;;;;;;;19.33;11.88;;;;;;;;;;5074146;28;20053;-59
2023/11/26 07:41:18;;;;;;;20.05;11.60;;;;;;;;;;5073726;28;20053;-59
2023/11/26 07:43:46;;;;;;;21.70;11.63;;;;;;;;;;5074010;28;20045;-59
2023/11/26 07:46:13;;;;;;;18.13;11.85;;;;;;;;;;5073719;28;20482;-59
2023/11/26 07:48:42;;;;;;;19.08;12.50;;;;;;;;;;5073605;28;20382;-60
2023/11/26 07:51:10;;;;;;;17.83;10.20;;;;;;;;;;5073676;28;20065;-59
2023/11/26 07:53:38;;;;;;;18.80;11.75;;;;;;;;;;5073656;28;20480;-59
2023/11/26 07:56:06;;;;;;;20.20;11.48;;;;;;;;;;5073696;28;20053;-60
2023/11/26 07:58:33;;;;;;;20.33;12.00;;;;;;;;;;5073467;28;20059;-59
2023/11/26 08:01:01;;;;;;;22.00;12.93;;;;;;;;;;5073753;28;20059;-59
2023/11/26 08:03:28;;;;;;;17.52;11.85;;;;;;;;;;5073569;28;20482;-60
2023/11/26 08:05:55;;;;;;;20.63;12.68;;;;;;;;;;5072955;28;20048;-59
2023/11/26 08:08:23;;;;;;;22.42;12.77;;;;;;;;;;5073040;28;20405;-59
2023/11/26 08:10:50;;;;;;;23.17;12.63;;;;;;;;;;5073114;28;20067;-59
2023/11/26 08:13:22;;;;;;;22.23;13.00;;;;;;;;;;5073172;28;20071;-59
2023/11/26 08:15:49;;;;;;;19.40;12.95;;;;;;;;;;5073320;28;20063;-59
2023/11/26 08:18:16;;;;;;;20.60;13.13;;;;;;;;;;5073157;28;20048;-59
2023/11/26 08:20:43;;;;;;;24.35;14.07;;;;;;;;;;5072665;28;20378;-59
2023/11/26 08:23:12;;;;;;;21.42;13.15;;;;;;;;;;5073139;28;20377;-60
2023/11/26 08:25:40;;;;;;;22.73;13.05;;;;;;;;;;5072612;28;20059;-59
2023/11/26 08:28:07;;;;;;;23.38;14.50;;;;;;;;;;5073047;28;20432;-59
2023/11/26 08:30:42;;;;;;;20.80;13.10;;;;;;;;;;5073149;28;20048;-59
2023/11/26 08:33:10;;;;;;;22.23;13.73;;;;;;;;;;5072955;28;20053;-59
2023/11/26 08:35:37;;;;;;;20.20;13.23;;;;;;;;;;5072854;28;20057;-59
2023/11/26 08:38:05;;;;;;;22.00;13.32;;;;;;;;;;5073061;28;20053;-59
2023/11/26 08:40:33;;;;;;;22.15;14.05;;;;;;;;;;5072563;28;20064;-59
2023/11/26 08:43:02;;;;;;;25.92;15.05;;;;;;;;;;5072337;28;20057;-60
2023/11/26 08:45:29;;;;;;;25.20;16.27;;;;;;;;;;5087327;28;20070;-60
2023/11/26 08:47:56;;;;;;;26.17;14.95;;;;;;;;;;5092831;28;20052;-60
2023/11/26 08:50:23;;;;;;;21.13;14.38;;;;;;;;;;5092353;28;20059;-60
2023/11/26 08:52:53;;;;;;;24.20;15.68;;;;;;;;;;5092814;28;20075;-59
2023/11/26 08:55:20;;;;;;;22.98;14.57;;;;;;;;;;5092600;28;20063;-60
2023/11/26 08:57:47;;;;;;;20.85;13.27;;;;;;;;;;5092729;28;20610;-59
2023/11/26 09:00:17;;;;;;;21.70;13.18;;;;;;;;;;5092502;28;20059;-59
2023/11/26 09:02:44;;;;;;;25.73;13.70;;;;;;;;;;5092337;28;20044;-59
2023/11/26 09:05:11;;;;;;;24.10;14.15;;;;;;;;;;5092665;28;20412;-59
2023/11/26 09:07:41;;;;;;;21.13;13.20;;;;;;;;;;5092644;28;20087;-59
2023/11/26 09:10:07;;;;;;;;;;;;;;;;;;5092799;28;20481;-59
2023/11/26 09:12:34;;;;;;;22.02;13.15;;;;;;;;;;5092552;28;19920;-59
2023/11/26 09:15:01;;;;;;;20.83;13.32;;;;;;;;;;5092558;28;20063;-59
2023/11/26 09:17:30;;;;;;;20.85;12.95;;;;;;;;;;5092697;28;20056;-59
2023/11/26 09:19:57;;;;;;;22.05;13.65;;;;;;;;;;5092566;28;20055;-59
2023/11/26 09:22:24;;;;;;;22.63;13.90;;;;;;;;;;5092305;28;20063;-59
2023/11/26 09:24:51;;;;;;;20.50;12.57;;;;;;;;;;5092092;28;20052;-59
2023/11/26 09:27:18;;;;;;;18.42;12.98;;;;;;;;;;5092361;28;20056;-59
2023/11/26 09:29:46;;;;;;;19.17;13.45;;;;;;;;;;5091864;28;20052;-59
2023/11/26 09:32:13;;;;;;;20.58;13.70;;;;;;;;;;5092031;28;20047;-59
2023/11/26 09:34:42;;;;;;;19.65;13.52;;;;;;;;;;5092134;28;20074;-59
2023/11/26 09:37:08;;;;;;;21.38;13.20;;;;;;;;;;5093700;28;20056;-59
2023/11/26 09:39:35;;;;;;;20.48;12.85;;;;;;;;;;5096419;28;20059;-59
2023/11/26 09:42:02;;;;;;;19.38;12.70;;;;;;;;;;5095824;28;20570;-59
2023/11/26 09:44:29;;;;;;;19.38;13.48;;;;;;;;;;5088896;28;20152;-59
2023/11/26 09:46:56;;;;;;;20.73;13.68;;;;;;;;;;5075920;28;20064;-59
2023/11/26 09:49:25;;;;;;;19.50;13.73;;;;;;;;;;5076054;28;20159;-59
2023/11/26 09:51:55;;;;;;;20.55;13.18;;;;;;;;;;5075511;28;20063;-60
2023/11/26 09:54:22;;;;;;;22.63;14.50;;;;;;;;;;5075613;28;20056;-59
2023/11/26 09:56:54;;;;;;;20.33;13.75;;;;;;;;;;5075884;28;20055;-59
2023/11/26 09:59:24;;;;;;;18.00;13.40;;;;;;;;;;5075778;28;20063;-59
2023/11/26 10:01:51;;;;;;;21.52;14.10;;;;;;;;;;5075877;28;20048;-60
2023/11/26 10:04:18;;;;;;;23.10;14.48;;;;;;;;;;5075248;28;20052;-59
2023/11/26 10:06:49;;;;;;;21.75;15.05;;;;;;;;;;5075725;28;20485;-59
2023/11/26 10:09:18;;;;;;;23.02;15.82;;;;;;;;;;5075627;28;20053;-59
2023/11/26 10:11:47;;;;;;;21.20;14.88;;;;;;;;;;5075480;28;20052;-59
2023/11/26 10:14:14;;;;;;;21.35;15.20;;;;;;;;;;5075725;28;20053;-60
2023/11/26 10:16:42;;;;;;;20.67;15.75;;;;;;;;;;5075261;28;20059;-59
2023/11/26 10:19:21;;;;;;;20.15;15.27;;;;;;;;;;5075112;28;20052;-59
2023/11/26 10:21:51;;;;;;;20.45;15.07;;;;;;;;;;5075485;28;20095;-60
2023/11/26 10:24:21;;;;;;;21.60;15.00;;;;;;;;;;5075556;28;20059;-59
2023/11/26 10:26:50;;;;;;;24.08;15.45;;;;;;;;;;5075464;28;20393;-60
2023/11/26 10:29:19;;;;;;;18.05;14.27;;;;;;;;;;5074977;28;20135;-59
2023/11/26 10:32:01;;;;;;;19.77;14.23;;;;;;;;;;5075591;28;20472;-60
2023/11/26 10:34:28;;;;;;;21.25;14.38;;;;;;;;;;5074994;28;20051;-60
2023/11/26 10:36:54;;;;;;;23.92;15.48;;;;;;;;;;5075343;28;20053;-60
2023/11/26 10:39:23;;;;;;;21.65;15.20;;;;;;;;;;5075343;28;20055;-59
2023/11/26 10:41:50;;;;;;;23.25;15.82;;;;;;;;;;5074519;28;20052;-60
2023/11/26 10:44:17;;;;;;;21.45;15.60;;;;;;;;;;5074603;28;20040;-59
2023/11/26 10:46:45;;;;;;;24.10;16.10;;;;;;;;;;5075175;28;20071;-60
2023/11/26 10:49:15;;;;;;;23.00;15.45;;;;;;;;;;5074413;28;20053;-60
2023/11/26 10:51:46;;;;;;;22.88;15.80;;;;;;;;;;5075056;28;20052;-59
2023/11/26 10:54:16;;;;;;;20.90;15.23;;;;;;;;;;5074396;28;20090;-59
2023/11/26 10:56:46;;;;;;;22.65;15.00;;;;;;;;;;5075033;28;20053;-60
2023/11/26 10:59:17;;;;;;;22.48;16.48;;;;;;;;;;5074664;28;20152;-59
2023/11/26 11:01:44;;;;;;;20.85;15.20;;;;;;;;;;5074963;28;20059;-60
2023/11/26 11:04:13;;;;;;;19.95;15.15;;;;;;;;;;5074789;28;20055;-59
2023/11/26 11:06:40;;;;;;;21.60;15.43;;;;;;;;;;5074669;28;20048;-59
2023/11/26 11:09:12;;;;;;;23.63;16.90;;;;;;;;;;5074277;28;20058;-60
2023/11/26 11:11:42;;;;;;;22.05;16.10;;;;;;;;;;5074912;28;20409;-59
2023/11/26 11:14:11;;;;;;;20.17;15.07;;;;;;;;;;5074363;28;20057;-59
2023/11/26 11:16:38;;;;;;;19.40;14.40;;;;;;;;;;5074778;28;20071;-59
2023/11/26 11:19:05;;;;;;;22.33;16.42;;;;;;;;;;5074246;28;20478;-59
2023/11/26 11:21:32;;;;;;;22.73;16.20;;;;;;;;;;5074383;28;20071;-59
2023/11/26 11:24:01;;;;;;;26.20;17.38;;;;;;;;;;5074307;28;20060;-59
2023/11/26 11:26:29;;;;;;;24.00;16.48;;;;;;;;;;5074524;28;20049;-60
2023/11/26 11:29:00;;;;;;;25.55;17.98;;;;;;;;;;5074263;28;20056;-59
2023/11/26 11:31:41;;;;;;;22.40;17.83;;;;;;;;;;5074509;28;20056;-59
2023/11/26 11:34:19;;;;;;;23.50;16.73;;;;;;;;;;5073796;28;20045;-59
2023/11/26 11:36:50;;;;;;;19.98;14.63;;;;;;;;;;5074176;28;20403;-59
2023/11/26 11:39:17;;;;;;;21.00;14.90;;;;;;;;;;5073775;28;20056;-60
2023/11/26 11:41:59;;;;;;;22.88;17.00;;;;;;;;;;5073557;28;20052;-59
2023/11/26 11:44:27;;;;;;;21.05;15.70;;;;;;;;;;5073047;28;20044;-59
2023/11/26 11:46:54;;;;;;;33.35;25.58;;;;;;;;;;5074167;28;20347;-59
2023/11/26 11:49:22;;;;;;;25.08;17.70;;;;;;;;;;5073631;28;20163;-59
2023/11/26 11:51:49;;;;;;;22.88;16.20;;;;;;;;;;5073921;28;20063;-58
2023/11/26 11:54:35;;;;;;;22.40;14.55;;;;;;;;;;5073356;28;20048;-59
2023/11/26 11:57:03;;;;;;;21.38;14.98;;;;;;;;;;5073602;28;20053;-59
2023/11/26 11:59:30;;;;;;;18.00;12.73;;;;;;;;;;5072564;28;20059;-59
2023/11/26 12:01:57;;;;;;;17.80;13.38;;;;;;;;;;5073574;28;20044;-59
2023/11/26 12:04:38;;;;;;;19.35;14.38;;;;;;;;;;5073293;28;20056;-59
2023/11/26 12:07:05;;;;;;;21.25;14.98;;;;;;;;;;5073769;28;20075;-59
2023/11/26 12:09:37;;;;;;;18.90;13.23;;;;;;;;;;5073830;28;20489;-59
2023/11/26 12:12:17;;;;;;;18.05;12.57;;;;;;;;;;5073611;28;20048;-60
2023/11/26 12:14:44;;;;;;;19.42;12.93;;;;;;;;;;5073068;28;20045;-59
2023/11/26 12:17:11;;;;;;;15.48;12.18;;;;;;;;;;5073609;28;20053;-59
2023/11/26 12:19:40;;;;;;;15.77;12.48;;;;;;;;;;5073360;28;20053;-60
2023/11/26 12:22:07;;;;;;;20.73;13.43;;;;;;;;;;5072903;28;20075;-59
2023/11/26 12:24:34;;;;;;;20.17;12.38;;;;;;;;;;5072838;28;20056;-59
2023/11/26 12:27:02;;;;;;;15.25;11.45;;;;;;;;;;5073291;28;20048;-60
2023/11/26 12:29:29;;;;;;;15.98;12.02;;;;;;;;;;5072807;28;20063;-59
2023/11/26 12:31:57;;;;;;;15.70;12.40;;;;;;;;;;5072950;28;20370;-60
2023/11/26 12:34:24;;;;;;;16.30;11.50;;;;;;;;;;5072908;28;20048;-60
2023/11/26 12:36:52;;;;;;;17.60;12.00;;;;;;;;;;5072861;28;20052;-60
2023/11/26 12:39:20;;;;;;;17.08;11.80;;;;;;;;;;5072824;28;20508;-60
2023/11/26 12:41:47;;;;;;;16.25;11.18;;;;;;;;;;5072229;28;20056;-59
2023/11/26 12:44:14;;;;;;;15.45;11.02;;;;;;;;;;5072863;28;20083;-60
2023/11/26 12:46:42;;;;;;;16.20;11.82;;;;;;;;;;5072919;28;20048;-60
2023/11/26 12:49:15;;;;;;;14.65;11.10;;;;;;;;;;5072392;28;20059;-60
2023/11/26 12:51:42;;;;;;;15.95;11.32;;;;;;;;;;5073002;28;20504;-59
2023/11/26 12:54:11;;;;;;;17.10;11.52;;;;;;;;;;5072681;28;20059;-59
2023/11/26 12:56:38;;;;;;;16.88;9.98;;;;;;;;;;5072374;28;20378;-59
2023/11/26 12:59:05;;;;;;;16.05;11.15;;;;;;;;;;5072473;28;20048;-59
2023/11/26 13:01:34;;;;;;;14.65;10.93;;;;;;;;;;5072219;28;20063;-59
2023/11/26 13:04:01;;;;;;;16.15;11.60;;;;;;;;;;5072417;28;20059;-59
2023/11/26 13:06:29;;;;;;;15.48;10.63;;;;;;;;;;5072408;28;20166;-59
2023/11/26 13:09:00;;;;;;;18.30;12.52;;;;;;;;;;5072307;28;20508;-60
2023/11/26 13:11:28;;;;;;;17.73;12.75;;;;;;;;;;5071970;28;20055;-60
2023/11/26 13:14:01;;;;;;;17.85;11.98;;;;;;;;;;5071719;28;20063;-60
2023/11/26 13:16:27;;;;;;;18.60;11.95;;;;;;;;;;5071991;28;20049;-59
2023/11/26 13:18:54;;;;;;;17.15;11.82;;;;;;;;;;5071910;28;20071;-59
2023/11/26 13:21:21;;;;;;;17.45;12.38;;;;;;;;;;5071696;28;20166;-59
2023/11/26 13:23:48;;;;;;;18.10;13.18;;;;;;;;;;5071808;28;20521;-59
2023/11/26 13:26:15;;;;;;;15.60;11.95;;;;;;;;;;5071889;28;20052;-59
2023/11/26 13:28:45;;;;;;;20.48;12.63;;;;;;;;;;5072041;28;20349;-59
2023/11/26 13:31:12;;;;;;;16.08;12.55;;;;;;;;;;5071471;28;20057;-60
2023/11/26 13:33:39;;;;;;;17.05;12.20;;;;;;;;;;5071506;28;20057;-59
2023/11/26 13:36:06;;;;;;;16.70;12.95;;;;;;;;;;5071690;28;20491;-59
2023/11/26 13:38:33;;;;;;;18.23;12.15;;;;;;;;;;5072230;28;20056;-59
2023/11/26 13:41:00;;;;;;;18.17;12.63;;;;;;;;;;5071772;28;20055;-60
2023/11/26 13:43:28;;;;;;;16.88;12.88;;;;;;;;;;5072072;28;20048;-60
2023/11/26 13:45:57;;;;;;;17.48;12.75;;;;;;;;;;5071846;28;20067;-60
2023/11/26 13:48:24;;;;;;;17.13;11.47;;;;;;;;;;5071707;28;20057;-60
2023/11/26 13:50:51;;;;;;;20.45;12.40;;;;;;;;;;5071717;28;20063;-59
2023/11/26 13:53:18;;;;;;;14.68;10.90;;;;;;;;;;5071893;28;20386;-59
2023/11/26 13:55:45;;;;;;;17.45;11.07;;;;;;;;;;5071357;28;20049;-59
2023/11/26 13:58:11;;;;;;;16.95;12.43;;;;;;;;;;5071943;28;20071;-60
2023/11/26 14:00:38;;;;;;;16.33;10.77;;;;;;;;;;5071683;28;20052;-60
2023/11/26 14:03:08;;;;;;;19.17;12.32;;;;;;;;;;5071852;28;20045;-60
2023/11/26 14:05:35;;;;;;;15.43;11.18;;;;;;;;;;5071679;28;20055;-60
2023/11/26 14:08:06;;;;;;;16.92;11.98;;;;;;;;;;5071840;28;20048;-59
2023/11/26 14:10:32;;;;;;;18.20;12.50;;;;;;;;;;5071000;28;20061;-59
2023/11/26 14:13:01;;;;;;;15.18;11.85;;;;;;;;;;5071424;28;20063;-60
2023/11/26 14:15:28;;;;;;;15.75;11.23;;;;;;;;;;5071421;28;20053;-59
2023/11/26 14:17:57;;;;;;;20.40;14.10;;;;;;;;;;5071774;28;20075;-59
2023/11/26 14:20:25;;;;;;;19.15;12.93;;;;;;;;;;5069641;28;20063;-59
2023/11/26 14:22:52;;;;;;;18.48;12.77;;;;;;;;;;5072466;28;20052;-60